Time;durP1;ratioP1;P1;durP2;ratioP2;P2;SDS_P1;SDS_P2;PMS_P1;PMS_P2;Temp;Humidity;BMP_temperature;BMP_pressure;BME280_temperature;BME280_humidity;BME280_pressure;Samples;Min_cycle;Max_cycle;Signal;HPM_P1;HPM_P2
2022/05/24 00:05:32;;;;;;;7.05;3.20;;;17.90;99.90;;;;;;4957294;29;20038;-82
2022/05/24 00:11:20;;;;;;;7.95;3.17;;;18.00;99.90;;;;;;4956994;29;20031;-81
2022/05/24 00:17:08;;;;;;;4.43;2.20;;;18.00;99.90;;;;;;4956721;29;20058;-81
2022/05/24 00:22:55;;;;;;;6.00;2.67;;;18.00;99.90;;;;;;4938316;29;20058;-81
2022/05/24 00:28:43;;;;;;;4.10;2.17;;;18.00;99.90;;;;;;4937743;29;20105;-81
2022/05/24 00:34:31;;;;;;;8.30;2.85;;;18.00;99.90;;;;;;4956702;29;20383;-81
2022/05/24 00:50:31;;;;;;;10.32;2.80;;;18.00;99.90;;;;;;4915839;29;20050;-80
2022/05/24 00:59:45;;;;;;;6.20;2.40;;;18.00;99.90;;;;;;4916234;29;20183;-80
2022/05/24 01:05:32;;;;;;;11.95;2.20;;;18.00;99.90;;;;;;4915957;29;20125;-80
2022/05/24 01:11:20;;;;;;;5.18;1.92;;;17.90;99.90;;;;;;4915957;29;20091;-80
2022/05/24 01:17:07;;;;;;;3.20;1.80;;;17.80;99.90;;;;;;4923930;29;20427;-82
2022/05/24 01:29:37;;;;;;;1.98;1.00;;;17.40;99.90;;;;;;4914399;29;20108;-83
2022/05/24 01:38:46;;;;;;;6.25;2.92;;;17.10;99.90;;;;;;4906356;29;20031;-81
2022/05/24 01:48:27;;;;;;;4.60;4.20;;;16.80;99.90;;;;;;4914649;29;20556;-81
2022/05/24 01:54:15;;;;;;;5.68;3.97;;;16.70;99.90;;;;;;4915114;29;20034;-81
2022/05/24 02:00:05;;;;;;;8.57;4.97;;;16.60;99.90;;;;;;4955550;29;20094;-81
2022/05/24 02:05:53;;;;;;;5.82;5.22;;;16.60;99.90;;;;;;4936094;29;20050;-83
2022/05/24 02:11:40;;;;;;;7.03;5.90;;;16.40;99.90;;;;;;4936312;29;20027;-81
2022/05/24 02:17:35;;;;;;;8.07;6.43;;;16.30;99.90;;;;;;4936269;29;20058;-83
2022/05/24 02:23:22;;;;;;;6.53;5.70;;;16.20;99.90;;;;;;4935917;29;20062;-81
2022/05/24 02:29:10;;;;;;;16.80;7.07;;;16.20;99.90;;;;;;4935819;29;20563;-81
2022/05/24 02:34:57;;;;;;;10.68;6.70;;;16.10;99.90;;;;;;4945367;29;20086;-80
2022/05/24 02:50:53;;;;;;;16.83;11.60;;;15.80;99.90;;;;;;4945307;28;20103;-80
2022/05/24 02:56:43;;;;;;;10.45;8.23;;;15.60;99.90;;;;;;4938972;29;20139;-80
2022/05/24 03:02:30;;;;;;;9.70;8.48;;;15.60;99.90;;;;;;4960369;28;20111;-80
2022/05/24 03:14:24;;;;;;;11.45;7.75;;;15.70;99.90;;;;;;4965209;28;20033;-80
2022/05/24 03:20:11;;;;;;;9.57;7.03;;;15.60;99.90;;;;;;4957729;29;20509;-80
2022/05/24 03:25:59;;;;;;;10.80;7.55;;;15.60;99.90;;;;;;4957906;29;20030;-80
2022/05/24 03:31:48;;;;;;;8.90;6.43;;;15.60;99.90;;;;;;4956823;28;20034;-80
2022/05/24 03:37:35;;;;;;;9.77;7.43;;;15.60;99.90;;;;;;4945918;29;20049;-79
2022/05/24 03:43:24;;;;;;;11.85;7.97;;;15.60;99.90;;;;;;4949942;28;20124;-79
2022/05/24 04:10:46;;;;;;;8.38;6.35;;;15.50;99.90;;;;;;4915778;29;20051;-81
2022/05/24 04:13:11;;;;;;;11.50;6.38;;;15.50;99.90;;;;;;4913874;29;20060;-80
2022/05/24 04:15:39;;;;;;;7.18;5.32;;;15.50;99.90;;;;;;4903986;29;20032;-81
2022/05/24 04:18:04;;;;;;;9.13;5.65;;;15.50;99.90;;;;;;4928304;29;20476;-81
2022/05/24 04:20:42;;;;;;;7.07;6.00;;;15.50;99.90;;;;;;4917307;29;20032;-81
2022/05/24 04:23:12;;;;;;;10.45;6.40;;;15.50;99.90;;;;;;4919941;29;20095;-81
2022/05/24 04:25:53;;;;;;;8.25;6.40;;;15.50;99.90;;;;;;4916855;29;20433;-81
2022/05/24 04:28:20;;;;;;;11.00;5.93;;;15.50;99.90;;;;;;4913945;29;20113;-81
2022/05/24 04:30:48;;;;;;;11.90;6.47;;;15.50;99.90;;;;;;4917184;29;20480;-81
2022/05/24 04:33:16;;;;;;;9.80;6.13;;;15.40;99.90;;;;;;4917113;29;20036;-81
2022/05/24 04:35:43;;;;;;;8.98;6.07;;;15.40;99.90;;;;;;4916874;29;20058;-81
2022/05/24 04:38:11;;;;;;;11.23;6.05;;;15.40;99.90;;;;;;4900673;29;20439;-81
2022/05/24 04:43:22;;;;;;;8.68;5.63;;;15.40;99.90;;;;;;4928998;29;20383;-81
2022/05/24 04:45:53;;;;;;;9.38;5.43;;;15.50;99.90;;;;;;4910730;29;20063;-82
2022/05/24 04:48:19;;;;;;;9.45;6.00;;;15.50;99.90;;;;;;4924742;29;20066;-81
2022/05/24 04:50:52;;;;;;;7.65;6.28;;;15.50;99.90;;;;;;4892636;29;20393;-81
2022/05/24 04:53:18;;;;;;;11.23;6.18;;;15.50;99.90;;;;;;4912020;29;20032;-81
2022/05/24 04:55:43;;;;;;;8.27;5.60;;;15.50;99.90;;;;;;4900956;29;20024;-81
2022/05/24 04:58:22;;;;;;;8.95;6.35;;;15.50;99.90;;;;;;4918290;29;20380;-80
2022/05/24 05:00:48;;;;;;;7.10;5.80;;;15.50;99.90;;;;;;4914668;29;20024;-81
2022/05/24 05:03:18;;;;;;;10.65;6.25;;;15.50;99.90;;;;;;4900180;29;20482;-81
2022/05/24 05:05:44;;;;;;;11.07;6.05;;;15.60;99.90;;;;;;4915221;29;20400;-81
2022/05/24 05:08:10;;;;;;;9.32;5.82;;;15.60;99.90;;;;;;4917263;29;20035;-81
2022/05/24 05:10:37;;;;;;;6.18;4.75;;;15.70;99.90;;;;;;4898569;29;20051;-81
2022/05/24 05:13:05;;;;;;;9.57;5.15;;;15.70;99.90;;;;;;4899865;29;20032;-81
2022/05/24 05:15:34;;;;;;;8.15;5.22;;;15.80;99.90;;;;;;4916838;29;20476;-81
2022/05/24 05:18:08;;;;;;;5.20;4.70;;;15.90;99.90;;;;;;4916948;29;20377;-81
2022/05/24 05:20:39;;;;;;;9.73;5.15;;;15.90;99.90;;;;;;4916562;29;20038;-81
2022/05/24 05:23:09;;;;;;;7.57;5.38;;;15.90;99.90;;;;;;4916816;29;20024;-81
2022/05/24 05:25:36;;;;;;;7.45;4.93;;;15.90;99.90;;;;;;4914632;29;20055;-82
2022/05/24 05:28:02;;;;;;;7.85;4.75;;;16.00;99.90;;;;;;4896484;29;20032;-81
2022/05/24 05:33:13;;;;;;;6.55;4.63;;;16.10;99.90;;;;;;4915479;29;20079;-81
2022/05/24 05:35:42;;;;;;;7.93;4.45;;;16.10;99.90;;;;;;4915321;29;20016;-82
2022/05/24 05:38:08;;;;;;;6.43;4.78;;;16.10;99.90;;;;;;4916233;29;20415;-83
2022/05/24 05:40:33;;;;;;;7.20;4.75;;;16.10;99.90;;;;;;4899545;29;20111;-82
2022/05/24 05:42:59;;;;;;;4.90;4.40;;;16.10;99.90;;;;;;4916751;29;20435;-81
2022/05/24 05:45:25;;;;;;;6.03;4.35;;;16.10;99.90;;;;;;4898826;29;20032;-81
2022/05/24 05:47:53;;;;;;;6.22;4.38;;;16.10;99.90;;;;;;4916168;29;20040;-81
2022/05/24 05:50:20;;;;;;;5.40;4.43;;;16.10;99.90;;;;;;4928876;29;20028;-82
2022/05/24 05:52:45;;;;;;;4.90;4.45;;;16.20;99.90;;;;;;4903298;29;20024;-82
2022/05/24 05:55:12;;;;;;;5.47;4.97;;;16.20;99.90;;;;;;4924944;29;20040;-82
2022/05/24 05:57:38;;;;;;;7.07;5.63;;;16.30;99.90;;;;;;4915729;29;20143;-81
2022/05/24 06:00:05;;;;;;;7.50;5.07;;;16.40;99.90;;;;;;4916071;29;20152;-82
2022/05/24 06:02:31;;;;;;;6.63;4.97;;;16.40;99.90;;;;;;4915627;29;20029;-81
2022/05/24 06:04:56;;;;;;;14.30;6.22;;;16.40;99.90;;;;;;4898473;29;20024;-81
2022/05/24 06:07:39;;;;;;;10.20;6.40;;;16.30;99.90;;;;;;4912345;29;20043;-82
2022/05/24 06:10:19;;;;;;;8.38;6.32;;;16.40;99.90;;;;;;4915666;29;20048;-82
2022/05/24 06:12:44;;;;;;;7.55;6.18;;;16.40;99.90;;;;;;4915218;29;20392;-82
2022/05/24 06:15:10;;;;;;;13.60;7.93;;;16.40;99.90;;;;;;4914513;29;20034;-82
2022/05/24 06:17:50;;;;;;;10.35;7.60;;;16.40;99.90;;;;;;4906383;29;20040;-81
2022/05/24 06:20:19;;;;;;;9.90;6.57;;;16.40;99.90;;;;;;4925256;29;20425;-81
2022/05/24 06:22:44;;;;;;;12.15;8.68;;;16.40;99.90;;;;;;4920547;29;20113;-81
2022/05/24 06:25:24;;;;;;;10.98;7.47;;;16.40;99.90;;;;;;4919511;29;20024;-81
2022/05/24 06:27:50;;;;;;;11.80;7.32;;;16.40;99.90;;;;;;4901879;29;20035;-81
2022/05/24 06:30:16;;;;;;;11.30;6.50;;;16.40;99.90;;;;;;4935306;29;20384;-82
2022/05/24 06:32:44;;;;;;;15.18;7.97;;;16.40;99.90;;;;;;4921428;29;20087;-83
2022/05/24 06:35:09;;;;;;;13.90;5.95;;;16.50;99.90;;;;;;4900068;29;20510;-82
2022/05/24 06:37:35;;;;;;;11.70;7.15;;;16.40;99.90;;;;;;4919608;29;20016;-84
2022/05/24 06:40:20;;;;;;;12.23;7.55;;;16.60;99.90;;;;;;4919418;29;20027;-81
2022/05/24 06:42:46;;;;;;;10.65;7.53;;;16.60;99.90;;;;;;4902613;29;20024;-82
2022/05/24 06:45:12;;;;;;;12.98;7.10;;;16.60;99.90;;;;;;4921291;29;20034;-83
2022/05/24 06:47:42;;;;;;;9.88;6.45;;;16.60;99.90;;;;;;4903014;29;20488;-82
2022/05/24 06:50:08;;;;;;;11.18;6.50;;;16.60;99.90;;;;;;4918423;29;20502;-82
2022/05/24 06:52:34;;;;;;;11.45;7.68;;;16.60;99.90;;;;;;4902579;29;20020;-81
2022/05/24 06:55:03;;;;;;;11.10;6.72;;;16.70;99.90;;;;;;4915344;29;20495;-82
2022/05/24 06:57:29;;;;;;;12.90;7.03;;;16.70;99.90;;;;;;4917192;29;20028;-81
2022/05/24 07:02:40;;;;;;;8.18;5.95;;;16.80;99.90;;;;;;4919591;29;20104;-81
2022/05/24 07:05:17;;;;;;;7.63;5.63;;;16.80;99.90;;;;;;4901412;29;20060;-81
2022/05/24 07:07:43;;;;;;;7.13;6.05;;;16.80;99.90;;;;;;4918012;29;20352;-81
2022/05/24 07:10:12;;;;;;;12.13;5.72;;;16.80;99.90;;;;;;4902045;29;20048;-82
2022/05/24 07:12:39;;;;;;;9.35;4.90;;;16.90;99.90;;;;;;4919043;29;20025;-81
2022/05/24 07:15:06;;;;;;;17.60;5.90;;;16.90;99.90;;;;;;4919048;29;20038;-81
2022/05/24 07:17:31;;;;;;;11.02;5.90;;;16.90;99.90;;;;;;4917967;29;20029;-81
2022/05/24 07:20:01;;;;;;;6.55;4.55;;;16.90;99.90;;;;;;4900962;29;20040;-81
2022/05/24 07:22:27;;;;;;;11.88;5.45;;;17.00;99.90;;;;;;4918375;29;20036;-81
2022/05/24 07:24:52;;;;;;;8.85;4.57;;;16.90;99.90;;;;;;4914350;29;20495;-81
2022/05/24 07:27:20;;;;;;;6.95;4.18;;;17.00;99.90;;;;;;4917957;29;20043;-81
2022/05/24 07:29:46;;;;;;;8.32;4.18;;;17.10;99.90;;;;;;4921258;29;20035;-81
2022/05/24 07:32:12;;;;;;;6.10;4.18;;;17.00;99.90;;;;;;4937967;29;20042;-82
2022/05/24 07:34:38;;;;;;;8.15;3.53;;;17.00;99.90;;;;;;4937228;29;20067;-82
2022/05/24 07:37:06;;;;;;;6.40;4.93;;;17.00;99.90;;;;;;4919759;29;20035;-82
2022/05/24 07:39:32;;;;;;;5.95;4.95;;;17.00;99.90;;;;;;4937260;29;20019;-82
2022/05/24 07:47:33;;;;;;;6.93;4.70;;;16.90;99.90;;;;;;4937472;29;20031;-81
2022/05/24 07:49:58;;;;;;;8.45;5.28;;;16.90;99.90;;;;;;4937126;29;20035;-82
2022/05/24 07:52:25;;;;;;;5.75;4.63;;;16.80;99.90;;;;;;4936646;29;20035;-82
2022/05/24 07:54:51;;;;;;;9.25;5.93;;;16.80;99.90;;;;;;4936976;29;20034;-81
2022/05/24 07:57:16;;;;;;;9.70;6.13;;;16.90;99.90;;;;;;4936909;29;20036;-83
2022/05/24 07:59:43;;;;;;;6.43;5.18;;;17.00;99.90;;;;;;4936803;29;20082;-82
2022/05/24 08:02:09;;;;;;;5.10;4.55;;;17.00;99.90;;;;;;4936909;29;20027;-82
2022/05/24 08:04:35;;;;;;;7.25;5.90;;;17.10;99.90;;;;;;4936784;29;20019;-84
2022/05/24 08:07:01;;;;;;;10.88;5.47;;;17.20;99.90;;;;;;4936553;29;20059;-82
2022/05/24 08:09:27;;;;;;;11.60;5.13;;;17.30;99.90;;;;;;4936594;29;20023;-82
2022/05/24 08:11:52;;;;;;;7.45;5.63;;;17.40;99.90;;;;;;4936769;29;20491;-82
2022/05/24 08:14:18;;;;;;;5.35;4.30;;;17.50;99.90;;;;;;4936526;29;20031;-84
2022/05/24 08:16:44;;;;;;;4.05;3.47;;;17.60;99.90;;;;;;4936507;29;20511;-83
2022/05/24 08:19:09;;;;;;;8.48;4.60;;;17.80;99.90;;;;;;4936593;29;20069;-83
2022/05/24 08:21:35;;;;;;;6.88;4.25;;;17.80;99.90;;;;;;4919241;29;20074;-81
2022/05/24 08:24:01;;;;;;;6.53;4.32;;;17.80;99.90;;;;;;4936458;29;20428;-81
2022/05/24 08:26:27;;;;;;;4.80;4.07;;;17.80;99.90;;;;;;4936396;29;20067;-82
2022/05/24 08:28:52;;;;;;;4.57;3.63;;;17.90;99.90;;;;;;4936416;29;20028;-82
2022/05/24 08:31:18;;;;;;;4.50;3.70;;;18.00;99.90;;;;;;4936195;29;20055;-83
2022/05/24 08:33:45;;;;;;;6.20;4.38;;;18.00;99.90;;;;;;4919142;29;20028;-82
2022/05/24 08:36:12;;;;;;;8.88;4.32;;;18.20;99.90;;;;;;4935858;29;20034;-82
2022/05/24 08:38:39;;;;;;;4.88;3.53;;;18.20;99.90;;;;;;4936170;29;20032;-82
2022/05/24 08:41:11;;;;;;;6.55;3.67;;;18.30;99.90;;;;;;4935951;29;20047;-82
2022/05/24 08:43:56;;;;;;;6.60;3.88;;;18.30;99.90;;;;;;4918872;29;20500;-82
2022/05/24 08:49:20;;;;;;;3.88;2.90;;;18.30;99.90;;;;;;4935990;29;20039;-82
2022/05/24 08:51:57;;;;;;;2.85;2.30;;;18.30;99.90;;;;;;4935624;29;20024;-82
2022/05/24 08:54:40;;;;;;;3.95;3.10;;;18.20;99.90;;;;;;4918781;29;20543;-82
2022/05/24 08:57:11;;;;;;;5.22;2.95;;;18.30;99.90;;;;;;4935846;29;20024;-82
2022/05/24 08:59:44;;;;;;;4.85;2.97;;;18.20;99.90;;;;;;4935845;29;20032;-82
2022/05/24 09:02:09;;;;;;;7.15;3.00;;;18.20;99.90;;;;;;4918705;29;20052;-82
2022/05/24 09:04:35;;;;;;;6.55;2.72;;;18.20;99.90;;;;;;4918633;29;20491;-82
2022/05/24 09:07:26;;;;;;;14.00;3.40;;;18.00;99.90;;;;;;4935452;29;20042;-82
2022/05/24 09:10:02;;;;;;;13.02;3.33;;;18.00;99.90;;;;;;4935500;29;20048;-82
2022/05/24 09:13:02;;;;;;;4.85;3.20;;;18.00;99.90;;;;;;4918484;29;20036;-82
2022/05/24 09:16:00;;;;;;;3.65;2.85;;;18.00;99.90;;;;;;4935424;29;20054;-81
2022/05/24 09:18:40;;;;;;;9.30;2.80;;;17.90;99.90;;;;;;4921811;29;20031;-82
2022/05/24 09:21:06;;;;;;;4.43;2.67;;;17.90;99.90;;;;;;4935193;29;20027;-82
2022/05/24 09:23:45;;;;;;;4.65;2.75;;;17.90;99.90;;;;;;4923607;29;20473;-82
2022/05/24 09:26:20;;;;;;;5.45;3.35;;;17.90;99.90;;;;;;4912782;29;20080;-81
2022/05/24 09:29:09;;;;;;;2.80;2.22;;;17.80;99.90;;;;;;4913331;29;20036;-81
2022/05/24 09:31:48;;;;;;;6.75;3.92;;;17.80;99.90;;;;;;4888570;29;20483;-83
2022/05/24 09:34:19;;;;;;;6.32;3.85;;;17.70;99.90;;;;;;4915185;29;20032;-82
2022/05/24 09:37:03;;;;;;;6.18;4.20;;;17.60;99.90;;;;;;4916161;29;20024;-82
2022/05/24 09:39:30;;;;;;;8.20;4.18;;;17.40;99.90;;;;;;4916638;29;20055;-81
2022/05/24 09:42:00;;;;;;;6.78;4.22;;;17.20;99.90;;;;;;4899354;29;20035;-81
2022/05/24 09:44:29;;;;;;;5.22;3.70;;;17.00;99.90;;;;;;4914869;29;20028;-82
2022/05/24 09:46:55;;;;;;;8.13;3.55;;;16.90;99.90;;;;;;4919078;29;20032;-82
2022/05/24 09:49:28;;;;;;;5.95;4.28;;;16.80;99.90;;;;;;4899490;29;20028;-82
2022/05/24 09:51:56;;;;;;;8.05;5.60;;;16.80;99.90;;;;;;4915705;29;20069;-81
2022/05/24 09:54:26;;;;;;;9.95;4.35;;;16.70;99.90;;;;;;4915221;29;20469;-82
2022/05/24 09:57:02;;;;;;;4.82;3.90;;;16.80;99.90;;;;;;4916134;29;20032;-81
2022/05/24 09:59:29;;;;;;;7.60;4.75;;;16.80;99.90;;;;;;4900685;29;20020;-81
2022/05/24 10:01:57;;;;;;;4.38;3.67;;;16.80;99.90;;;;;;4919943;29;20483;-81
2022/05/24 10:04:27;;;;;;;6.32;3.28;;;16.90;99.90;;;;;;4918575;29;20484;-81
2022/05/24 10:07:31;;;;;;;7.45;3.28;;;16.90;99.90;;;;;;4919915;29;20043;-82
2022/05/24 10:10:09;;;;;;;3.88;2.92;;;16.80;99.90;;;;;;4912972;29;20055;-82
2022/05/24 10:13:19;;;;;;;1.17;0.85;;;16.80;99.90;;;;;;4893108;29;20033;-80
2022/05/24 10:16:13;;;;;;;0.82;0.82;;;16.40;99.90;;;;;;4901277;29;20040;-81
2022/05/24 10:18:44;;;;;;;1.30;0.80;;;16.10;99.90;;;;;;4901151;29;20052;-82
2022/05/24 10:21:32;;;;;;;3.80;0.80;;;15.90;99.90;;;;;;4891692;29;20028;-82
2022/05/24 10:24:16;;;;;;;0.60;0.60;;;15.70;99.90;;;;;;4919070;29;20043;-81
2022/05/24 10:26:56;;;;;;;1.08;0.80;;;15.60;99.90;;;;;;4919124;29;20035;-82
2022/05/24 10:29:41;;;;;;;0.90;0.90;;;15.60;99.90;;;;;;4925623;29;20623;-81
2022/05/24 10:38:17;;;;;;;0.77;0.60;;;15.60;99.90;;;;;;4905605;29;20413;-81
2022/05/24 10:38:32;;;;;;;0.52;0.40;;;15.80;99.90;;;;;;4855567;29;20045;-82
2022/05/24 10:41:19;;;;;;;;;;;16.00;99.90;;;;;;4920431;29;20024;-82
2022/05/24 10:44:15;;;;;;;1.73;0.60;;;16.10;99.90;;;;;;4904653;29;20371;-82
2022/05/24 10:47:08;;;;;;;0.50;0.50;;;16.30;99.90;;;;;;4919770;29;20080;-82
2022/05/24 10:50:01;;;;;;;1.27;0.55;;;16.40;99.90;;;;;;4918826;29;20099;-82
2022/05/24 10:52:57;;;;;;;0.40;0.40;;;16.60;99.90;;;;;;4917104;29;20047;-82
2022/05/24 10:55:39;;;;;;;0.50;0.50;;;16.70;99.90;;;;;;4901805;29;20055;-82
2022/05/24 10:58:11;;;;;;;1.15;0.60;;;16.80;99.90;;;;;;4919931;29;20369;-82
2022/05/24 11:01:02;;;;;;;3.60;0.73;;;17.00;99.90;;;;;;4918541;29;20028;-82
2022/05/24 11:03:33;;;;;;;1.73;1.10;;;17.10;99.90;;;;;;4910038;29;20035;-82
2022/05/24 11:06:05;;;;;;;8.93;0.90;;;17.10;99.90;;;;;;4938231;29;20023;-82
2022/05/24 11:08:39;;;;;;;0.77;0.77;;;17.10;99.90;;;;;;4909211;29;20068;-82
2022/05/24 11:11:26;;;;;;;0.98;0.50;;;17.20;99.90;;;;;;4918799;29;20047;-82
2022/05/24 11:14:22;;;;;;;0.85;0.50;;;17.20;99.90;;;;;;4913065;29;20032;-82
2022/05/24 11:16:50;;;;;;;5.28;0.47;;;17.20;99.90;;;;;;4918546;29;20529;-82
2022/05/24 11:19:32;;;;;;;4.20;0.50;;;17.20;99.90;;;;;;4918777;29;20024;-83
2022/05/24 11:22:16;;;;;;;1.65;0.60;;;17.10;99.90;;;;;;4902131;29;20051;-83
2022/05/24 11:25:03;;;;;;;2.08;0.38;;;17.10;99.90;;;;;;4899497;29;20024;-81
2022/05/24 11:27:36;;;;;;;1.65;0.60;;;17.00;99.90;;;;;;4901655;29;20476;-84
2022/05/24 11:30:16;;;;;;;4.03;0.70;;;17.00;99.90;;;;;;4916746;29;20043;-83
2022/05/24 11:33:02;;;;;;;1.65;0.60;;;17.00;99.90;;;;;;4883204;29;20037;-83
2022/05/24 11:35:35;;;;;;;1.15;0.63;;;17.10;99.90;;;;;;4914978;29;20559;-82
2022/05/24 11:38:10;;;;;;;1.30;0.50;;;17.10;99.90;;;;;;4919742;29;20016;-82
2022/05/24 11:40:36;;;;;;;2.05;0.70;;;17.20;99.90;;;;;;4917717;29;20365;-83
2022/05/24 11:43:43;;;;;;;0.85;0.60;;;17.20;99.90;;;;;;4917115;29;20033;-82
2022/05/24 11:46:44;;;;;;;1.15;0.70;;;17.20;99.90;;;;;;4899878;29;20440;-82
2022/05/24 11:49:24;;;;;;;1.65;0.70;;;17.20;99.90;;;;;;4889027;29;20495;-83
2022/05/24 11:51:52;;;;;;;2.10;0.70;;;17.20;99.90;;;;;;4911060;29;20028;-83
2022/05/24 11:54:35;;;;;;;6.18;0.63;;;17.40;99.90;;;;;;4916535;29;20420;-84
2022/05/24 11:57:01;;;;;;;1.65;0.68;;;17.60;99.90;;;;;;4898842;29;20036;-82
2022/05/24 11:59:39;;;;;;;7.88;0.95;;;17.70;99.90;;;;;;4917176;29;20028;-82
2022/05/24 12:02:25;;;;;;;3.22;0.95;;;17.90;99.90;;;;;;4899854;29;20028;-83
2022/05/24 12:07:55;;;;;;;3.42;0.82;;;18.10;99.90;;;;;;4911325;29;20066;-82
2022/05/24 12:10:21;;;;;;;5.80;0.95;;;18.20;99.90;;;;;;4897902;29;20484;-84
2022/05/24 12:12:53;;;;;;;5.63;0.98;;;18.20;99.90;;;;;;4899006;29;20070;-83
2022/05/24 12:15:31;;;;;;;1.77;0.40;;;18.30;99.90;;;;;;4915387;29;20060;-84
2022/05/24 12:17:59;;;;;;;2.28;0.60;;;18.50;99.90;;;;;;4915482;29;20032;-85
2022/05/24 12:20:34;;;;;;;0.77;0.52;;;18.60;99.90;;;;;;4915215;29;20059;-83
2022/05/24 12:23:14;;;;;;;0.67;0.60;;;18.50;99.90;;;;;;4915666;29;20369;-84
2022/05/24 12:25:59;;;;;;;1.50;0.55;;;18.30;99.90;;;;;;4914553;29;20115;-84
2022/05/24 12:28:28;;;;;;;0.77;0.50;;;18.20;99.90;;;;;;4907763;29;20028;-84
2022/05/24 12:30:58;;;;;;;2.08;0.50;;;18.20;99.90;;;;;;4915745;29;20040;-87
2022/05/24 12:33:46;;;;;;;4.20;0.60;;;18.30;99.90;;;;;;4916810;29;20476;-84
2022/05/24 12:36:49;;;;;;;1.98;0.75;;;18.40;99.90;;;;;;4915099;29;20079;-84
2022/05/24 12:39:17;;;;;;;1.42;0.60;;;18.40;99.90;;;;;;4861683;29;20206;-85
2022/05/24 12:44:48;;;;;;;1.50;0.32;;;18.60;99.90;;;;;;4910183;29;20106;-87
2022/05/24 12:47:16;;;;;;;1.20;0.65;;;18.70;99.90;;;;;;4913381;29;20032;-83
2022/05/24 12:49:48;;;;;;;0.32;0.30;;;18.60;99.90;;;;;;4915019;29;20047;-84
2022/05/24 12:52:22;;;;;;;1.98;0.52;;;18.70;99.90;;;;;;4913693;29;20039;-83
2022/05/24 12:54:56;;;;;;;0.85;0.85;;;18.60;99.90;;;;;;4915848;29;20107;-84
2022/05/24 12:57:49;;;;;;;2.78;0.57;;;18.70;99.90;;;;;;4900289;29;20131;-83
2022/05/24 13:00:24;;;;;;;1.10;0.73;;;18.80;99.90;;;;;;4915436;29;20472;-85
2022/05/24 13:02:53;;;;;;;1.40;0.45;;;18.90;99.90;;;;;;4909835;29;20111;-84
2022/05/24 13:05:24;;;;;;;0.80;0.70;;;19.00;99.90;;;;;;4916543;29;20020;-84
2022/05/24 13:07:50;;;;;;;1.00;0.65;;;18.90;99.90;;;;;;4915656;29;20056;-83
2022/05/24 13:10:20;;;;;;;1.15;0.40;;;18.80;99.90;;;;;;4920298;29;20060;-84
2022/05/24 13:12:57;;;;;;;1.00;0.57;;;18.80;99.90;;;;;;4919212;29;20087;-84
2022/05/24 13:15:30;;;;;;;0.68;0.63;;;18.80;99.90;;;;;;4915344;29;20024;-84
2022/05/24 13:18:02;;;;;;;1.58;0.60;;;18.90;99.90;;;;;;4898612;29;20055;-83
2022/05/24 13:20:35;;;;;;;3.70;0.70;;;18.90;99.90;;;;;;4914368;29;20020;-86
2022/05/24 13:23:27;;;;;;;1.30;0.60;;;19.00;99.90;;;;;;4913174;29;20460;-84
2022/05/24 13:26:17;;;;;;;0.40;0.40;;;19.00;99.90;;;;;;4909430;29;20503;-86
2022/05/24 13:28:44;;;;;;;0.65;0.40;;;19.00;99.90;;;;;;4909025;29;20523;-85
2022/05/24 13:34:14;;;;;;;1.88;0.60;;;19.10;99.90;;;;;;4912925;29;20119;-84
2022/05/24 13:36:58;;;;;;;1.90;0.60;;;19.10;99.90;;;;;;4897807;29;20035;-84
2022/05/24 13:39:27;;;;;;;2.38;0.85;;;19.10;99.90;;;;;;4914875;29;20032;-85
2022/05/24 13:42:25;;;;;;;4.80;0.68;;;19.20;99.90;;;;;;4897620;29;20180;-84
2022/05/24 13:45:13;;;;;;;0.73;0.40;;;19.20;99.90;;;;;;4915355;29;20020;-85
2022/05/24 13:47:54;;;;;;;1.40;0.60;;;19.20;99.90;;;;;;4899287;29;20098;-86
2022/05/24 13:50:27;;;;;;;4.18;0.70;;;19.40;99.90;;;;;;4919294;29;20518;-84
2022/05/24 13:53:02;;;;;;;2.50;0.50;;;19.40;99.90;;;;;;4914621;29;20473;-84
2022/05/24 13:55:58;;;;;;;1.70;0.52;;;19.40;99.90;;;;;;4914792;29;20036;-86
2022/05/24 13:58:30;;;;;;;0.55;0.43;;;19.50;99.90;;;;;;4909372;29;20044;-86
2022/05/24 14:01:24;;;;;;;3.17;0.82;;;19.60;99.90;;;;;;4915317;29;20042;-86
2022/05/24 14:04:03;;;;;;;0.98;0.68;;;19.50;99.90;;;;;;4897691;29;20039;-87
2022/05/24 14:06:30;;;;;;;2.65;1.00;;;19.40;99.90;;;;;;4913411;29;20070;-84
2022/05/24 14:09:01;;;;;;;4.15;1.10;;;19.40;99.90;;;;;;4892096;29;20043;-85
2022/05/24 14:11:30;;;;;;;0.88;0.68;;;19.30;99.90;;;;;;4896106;29;20497;-86
2022/05/24 14:14:02;;;;;;;0.90;0.70;;;19.20;99.90;;;;;;4914712;29;20056;-85
2022/05/24 14:16:30;;;;;;;7.05;0.90;;;19.30;99.90;;;;;;4927895;29;20044;-85
2022/05/24 14:18:57;;;;;;;1.75;0.93;;;19.30;99.90;;;;;;4935317;29;20024;-86
2022/05/24 14:21:26;;;;;;;2.75;0.77;;;19.30;99.90;;;;;;4935108;29;20047;-84
2022/05/24 14:23:53;;;;;;;0.85;0.65;;;19.20;99.90;;;;;;4930785;29;20072;-86
2022/05/24 14:26:19;;;;;;;5.40;0.73;;;19.10;99.90;;;;;;4904656;29;20025;-87
2022/05/24 14:28:44;;;;;;;1.50;0.75;;;19.10;99.90;;;;;;4892785;29;20373;-87
2022/05/24 14:31:18;;;;;;;13.50;0.80;;;19.20;99.90;;;;;;4915906;29;20032;-85
2022/05/24 14:33:44;;;;;;;3.03;0.77;;;19.10;99.90;;;;;;4915943;29;20433;-85
2022/05/24 14:36:10;;;;;;;11.65;0.90;;;19.20;99.90;;;;;;4914058;29;20036;-86
2022/05/24 14:38:53;;;;;;;4.63;0.80;;;19.30;99.90;;;;;;4916069;29;20111;-87
2022/05/24 14:41:21;;;;;;;0.77;0.50;;;19.30;99.90;;;;;;4915836;29;20388;-88
2022/05/24 14:43:59;;;;;;;1.98;0.70;;;19.30;99.90;;;;;;4918031;29;20065;-85
2022/05/24 14:46:37;;;;;;;1.73;0.73;;;19.40;99.90;;;;;;4919166;29;20039;-86
2022/05/24 14:49:03;;;;;;;0.50;0.40;;;19.50;99.90;;;;;;4900779;29;20028;-84
2022/05/24 14:51:36;;;;;;;0.88;0.75;;;19.60;99.90;;;;;;4920244;29;20040;-88
2022/05/24 14:54:04;;;;;;;1.40;0.57;;;19.60;99.90;;;;;;4905766;29;20497;-87
2022/05/24 14:56:30;;;;;;;0.60;0.60;;;19.60;99.90;;;;;;4916248;29;20030;-85
2022/05/24 14:59:01;;;;;;;2.38;0.75;;;19.60;99.90;;;;;;4918544;29;20029;-86
2022/05/24 15:01:27;;;;;;;0.40;0.40;;;19.60;99.90;;;;;;4911795;29;20028;-84
2022/05/24 15:03:53;;;;;;;3.78;0.68;;;19.60;99.90;;;;;;4922500;29;20486;-86
2022/05/24 15:06:19;;;;;;;4.78;0.77;;;19.70;99.90;;;;;;4940142;29;20114;-86
2022/05/24 15:17:02;;;;;;;4.60;1.30;;;19.70;99.90;;;;;;4940001;29;20039;-86
2022/05/24 15:19:35;;;;;;;2.88;0.85;;;19.60;99.90;;;;;;4940037;29;20383;-88
2022/05/24 15:22:01;;;;;;;0.98;0.68;;;19.60;99.90;;;;;;4939110;29;20023;-86
2022/05/24 15:24:31;;;;;;;1.30;0.70;;;19.60;99.90;;;;;;4938621;29;20487;-85
2022/05/24 15:27:30;;;;;;;3.60;0.90;;;19.60;99.90;;;;;;4939634;29;20039;-86
2022/05/24 15:29:56;;;;;;;3.33;0.65;;;19.60;99.90;;;;;;4922201;29;20062;-85
2022/05/24 15:32:21;;;;;;;0.50;0.50;;;19.50;99.90;;;;;;4939194;29;20040;-85
2022/05/24 15:34:47;;;;;;;5.35;0.88;;;19.50;99.90;;;;;;4938790;29;20364;-86
2022/05/24 15:37:13;;;;;;;1.83;0.60;;;19.60;99.90;;;;;;4938851;29;20035;-86
2022/05/24 15:39:38;;;;;;;1.17;0.63;;;19.70;99.90;;;;;;4939257;29;20357;-85
2022/05/24 15:42:08;;;;;;;2.13;0.65;;;19.80;99.90;;;;;;4938403;29;20028;-86
2022/05/24 15:44:35;;;;;;;1.35;0.57;;;19.80;99.90;;;;;;4938244;29;20016;-87
2022/05/24 15:47:02;;;;;;;3.17;0.77;;;19.70;98.70;;;;;;4938169;29;20028;-84
2022/05/24 15:49:28;;;;;;;2.22;0.57;;;19.70;99.90;;;;;;4938230;29;20480;-87
2022/05/24 15:51:55;;;;;;;1.98;0.70;;;19.60;97.70;;;;;;4923288;29;20043;-85
2022/05/24 15:54:21;;;;;;;2.47;0.82;;;19.60;99.90;;;;;;4899969;29;20456;-86
2022/05/24 15:56:54;;;;;;;1.02;0.60;;;19.60;99.10;;;;;;4917760;29;20024;-84
2022/05/24 15:59:19;;;;;;;3.35;0.60;;;19.50;99.40;;;;;;4918563;29;20036;-86
2022/05/24 16:01:45;;;;;;;3.65;0.60;;;19.40;99.90;;;;;;4901416;29;20381;-85
2022/05/24 16:04:10;;;;;;;0.55;0.55;;;19.20;99.90;;;;;;4917851;29;20028;-85
2022/05/24 16:12:08;;;;;;;5.05;0.80;;;19.30;99.90;;;;;;4918480;29;20063;-86
2022/05/24 16:14:45;;;;;;;4.10;0.80;;;19.30;99.90;;;;;;4911016;29;20382;-85
2022/05/24 16:17:14;;;;;;;1.70;0.50;;;19.10;99.90;;;;;;4900562;29;20522;-85
2022/05/24 16:19:45;;;;;;;2.50;0.60;;;19.00;99.90;;;;;;4917520;29;20020;-85
2022/05/24 16:22:11;;;;;;;0.90;0.52;;;19.10;99.90;;;;;;4882391;29;20028;-85
2022/05/24 16:24:37;;;;;;;1.17;0.52;;;19.00;99.90;;;;;;4906673;29;20028;-86
2022/05/24 16:27:06;;;;;;;10.52;0.60;;;19.10;99.90;;;;;;4917870;29;20095;-88
2022/05/24 16:29:31;;;;;;;3.50;0.73;;;19.10;99.90;;;;;;4917683;29;20024;-85
2022/05/24 16:32:01;;;;;;;6.05;0.93;;;19.10;99.10;;;;;;4899344;29;20043;-86
2022/05/24 16:34:27;;;;;;;3.95;1.42;;;19.00;99.60;;;;;;4915878;29;20048;-85
2022/05/24 16:37:06;;;;;;;2.78;0.70;;;19.00;99.90;;;;;;4915084;29;20062;-85
2022/05/24 16:39:31;;;;;;;5.47;1.15;;;18.90;99.90;;;;;;4903481;29;20028;-86
2022/05/24 16:41:57;;;;;;;1.13;0.50;;;18.90;99.90;;;;;;4916577;29;20040;-86
2022/05/24 16:44:42;;;;;;;1.65;0.70;;;18.80;99.90;;;;;;4891746;29;20020;-84
2022/05/24 16:47:08;;;;;;;1.23;0.60;;;18.70;99.90;;;;;;4898562;29;20029;-84